Terminal Aerodrome Forecast
Issued by NWS

Home | Current Version | Previous Version | Text Only | Print | Product List | Glossary On
Versions: 1 2 3 4 5 6 7 8 9 10 11 12 13 14 15 16 17 18
000
FTUS46 KLOX 021744
TAFOXR
TAF
KOXR 021744Z 0218/0318 26006KT P6SM FEW120
     FM022000 26012KT P6SM SCT120
     FM030300 VRB03KT P6SM SCT150
     FM030900 VRB03KT 4SM BR BKN007=

USA.gov is the U.S. government's official web portal to all federal, state and local government web resources and services.